メインページ
METAR-TAF:

METAR-TAF

空港 :

NWS Office

マジュロ, マーシャル諸島

緯度: 07-05N, 経度: 171-12E, 海抜: 4m

現時点の気象観測

当レポートは1時間40分前の13:52(UTC)に作成
の風 4kt
気温 29°C
湿度 79%
気圧 1007 hPa
視程: 24.1km
高度1500ftの雲はほとんどない
高度5000ftの雲は散在している
高度30000ftの曇り

METAR: PKMR 141352Z 08004KT 15SM FEW015 SCT050 OVC300 29/25 A2974 RMK SLP073 T02850254

時間: 03:32 (15:32 UTC)


TAF: 見つかりません

4,000以上の空港の気象観測と天気予報(METAR報とTAF報)

利用可能な観測所は地図上に黄色い丸と赤い丸で示す。

丸の上にカーソルを重ねると観測所名を参照できる。

次にクリックすると気象観測と天気予報を参照できる。

マップの切り替え:黒色「×」印の緑ボタンをクリックして拡大、「-」印の緑ボタンをクリックして縮小、緑色の三角印をクリックして隣りの地図に切り替え


METAR-TAF: